sensor_id;sensor_type;location;lat;lon;timestamp;P1;durP1;ratioP1;P2;durP2;ratioP2
75930;SDS011;64609;47.052;15.462;2023-07-29T00:01:49;4.35;;;2.95;;
75930;SDS011;64609;47.052;15.462;2023-07-29T00:04:16;6.03;;;2.75;;
75930;SDS011;64609;47.052;15.462;2023-07-29T00:06:42;3.72;;;3.30;;
75930;SDS011;64609;47.052;15.462;2023-07-29T00:09:07;5.78;;;3.03;;
75930;SDS011;64609;47.052;15.462;2023-07-29T00:11:33;5.05;;;2.90;;
75930;SDS011;64609;47.052;15.462;2023-07-29T00:14:00;6.32;;;2.95;;
75930;SDS011;64609;47.052;15.462;2023-07-29T00:16:26;6.10;;;3.20;;
75930;SDS011;64609;47.052;15.462;2023-07-29T00:18:52;4.85;;;3.50;;
75930;SDS011;64609;47.052;15.462;2023-07-29T00:21:17;8.73;;;3.00;;
75930;SDS011;64609;47.052;15.462;2023-07-29T00:23:43;7.38;;;3.15;;
75930;SDS011;64609;47.052;15.462;2023-07-29T00:26:08;6.70;;;3.22;;
75930;SDS011;64609;47.052;15.462;2023-07-29T00:28:34;5.50;;;3.40;;
75930;SDS011;64609;47.052;15.462;2023-07-29T00:31:00;4.65;;;3.00;;
75930;SDS011;64609;47.052;15.462;2023-07-29T00:33:26;4.57;;;3.30;;
75930;SDS011;64609;47.052;15.462;2023-07-29T00:35:52;4.47;;;3.10;;
75930;SDS011;64609;47.052;15.462;2023-07-29T00:38:17;5.63;;;3.60;;
75930;SDS011;64609;47.052;15.462;2023-07-29T00:40:43;4.93;;;3.17;;
75930;SDS011;64609;47.052;15.462;2023-07-29T00:43:09;3.33;;;2.88;;
75930;SDS011;64609;47.052;15.462;2023-07-29T00:45:34;6.28;;;3.20;;
75930;SDS011;64609;47.052;15.462;2023-07-29T00:48:01;3.80;;;2.95;;
75930;SDS011;64609;47.052;15.462;2023-07-29T00:50:27;4.70;;;3.10;;
75930;SDS011;64609;47.052;15.462;2023-07-29T00:52:55;6.07;;;3.10;;
75930;SDS011;64609;47.052;15.462;2023-07-29T00:55:21;5.70;;;3.60;;
75930;SDS011;64609;47.052;15.462;2023-07-29T00:57:47;7.10;;;3.30;;
75930;SDS011;64609;47.052;15.462;2023-07-29T01:00:17;6.95;;;3.45;;
75930;SDS011;64609;47.052;15.462;2023-07-29T01:02:43;4.88;;;3.22;;
75930;SDS011;64609;47.052;15.462;2023-07-29T01:05:10;8.50;;;3.17;;
75930;SDS011;64609;47.052;15.462;2023-07-29T01:15:33;7.03;;;3.35;;
75930;SDS011;64609;47.052;15.462;2023-07-29T01:18:15;5.82;;;3.38;;
75930;SDS011;64609;47.052;15.462;2023-07-29T01:20:47;4.03;;;3.00;;
75930;SDS011;64609;47.052;15.462;2023-07-29T01:23:15;4.38;;;3.30;;
75930;SDS011;64609;47.052;15.462;2023-07-29T01:25:41;5.10;;;3.28;;
75930;SDS011;64609;47.052;15.462;2023-07-29T01:28:06;6.93;;;3.30;;
75930;SDS011;64609;47.052;15.462;2023-07-29T01:30:36;5.50;;;3.42;;
75930;SDS011;64609;47.052;15.462;2023-07-29T01:33:08;5.10;;;3.13;;
75930;SDS011;64609;47.052;15.462;2023-07-29T01:38:14;5.35;;;3.47;;
75930;SDS011;64609;47.052;15.462;2023-07-29T01:40:47;4.00;;;3.20;;
75930;SDS011;64609;47.052;15.462;2023-07-29T01:43:14;8.75;;;4.10;;
75930;SDS011;64609;47.052;15.462;2023-07-29T01:45:40;5.57;;;3.30;;
75930;SDS011;64609;47.052;15.462;2023-07-29T01:48:06;4.78;;;3.70;;
75930;SDS011;64609;47.052;15.462;2023-07-29T01:50:33;4.45;;;3.38;;
75930;SDS011;64609;47.052;15.462;2023-07-29T01:53:01;4.95;;;3.45;;
75930;SDS011;64609;47.052;15.462;2023-07-29T01:55:27;4.72;;;3.25;;
75930;SDS011;64609;47.052;15.462;2023-07-29T01:57:52;5.38;;;3.40;;
75930;SDS011;64609;47.052;15.462;2023-07-29T02:00:18;6.72;;;3.63;;
75930;SDS011;64609;47.052;15.462;2023-07-29T02:02:44;5.72;;;3.45;;
75930;SDS011;64609;47.052;15.462;2023-07-29T02:05:10;7.03;;;3.00;;
75930;SDS011;64609;47.052;15.462;2023-07-29T02:07:36;7.90;;;3.72;;
75930;SDS011;64609;47.052;15.462;2023-07-29T02:10:01;8.20;;;3.13;;
75930;SDS011;64609;47.052;15.462;2023-07-29T02:12:27;5.35;;;3.47;;
75930;SDS011;64609;47.052;15.462;2023-07-29T02:14:53;5.65;;;3.72;;
75930;SDS011;64609;47.052;15.462;2023-07-29T02:17:18;6.22;;;3.38;;
75930;SDS011;64609;47.052;15.462;2023-07-29T02:19:44;5.18;;;3.47;;
75930;SDS011;64609;47.052;15.462;2023-07-29T02:22:12;4.25;;;3.65;;
75930;SDS011;64609;47.052;15.462;2023-07-29T02:24:39;5.93;;;3.30;;
75930;SDS011;64609;47.052;15.462;2023-07-29T02:27:05;6.07;;;3.33;;
75930;SDS011;64609;47.052;15.462;2023-07-29T02:29:31;5.60;;;3.15;;
75930;SDS011;64609;47.052;15.462;2023-07-29T02:31:58;8.48;;;3.60;;
75930;SDS011;64609;47.052;15.462;2023-07-29T02:34:24;10.05;;;3.33;;
75930;SDS011;64609;47.052;15.462;2023-07-29T02:36:50;4.68;;;3.28;;
75930;SDS011;64609;47.052;15.462;2023-07-29T02:39:15;6.68;;;3.50;;
75930;SDS011;64609;47.052;15.462;2023-07-29T02:41:41;5.60;;;3.45;;
75930;SDS011;64609;47.052;15.462;2023-07-29T02:44:07;5.38;;;3.30;;
75930;SDS011;64609;47.052;15.462;2023-07-29T02:46:33;6.40;;;4.32;;
75930;SDS011;64609;47.052;15.462;2023-07-29T02:48:58;6.10;;;3.20;;
75930;SDS011;64609;47.052;15.462;2023-07-29T02:51:24;5.22;;;3.58;;
75930;SDS011;64609;47.052;15.462;2023-07-29T02:53:50;6.85;;;3.60;;
75930;SDS011;64609;47.052;15.462;2023-07-29T02:56:15;6.35;;;3.45;;
75930;SDS011;64609;47.052;15.462;2023-07-29T02:58:41;4.63;;;3.88;;
75930;SDS011;64609;47.052;15.462;2023-07-29T03:01:07;7.30;;;3.38;;
75930;SDS011;64609;47.052;15.462;2023-07-29T03:03:33;4.88;;;3.28;;
75930;SDS011;64609;47.052;15.462;2023-07-29T03:05:59;6.10;;;3.30;;
75930;SDS011;64609;47.052;15.462;2023-07-29T03:08:32;7.85;;;3.67;;
75930;SDS011;64609;47.052;15.462;2023-07-29T03:10:58;5.07;;;3.20;;
75930;SDS011;64609;47.052;15.462;2023-07-29T03:13:29;4.68;;;3.22;;
75930;SDS011;64609;47.052;15.462;2023-07-29T03:16:00;6.38;;;3.58;;
75930;SDS011;64609;47.052;15.462;2023-07-29T03:18:39;4.47;;;2.97;;
75930;SDS011;64609;47.052;15.462;2023-07-29T03:21:06;7.47;;;3.53;;
75930;SDS011;64609;47.052;15.462;2023-07-29T03:23:31;6.30;;;3.67;;
75930;SDS011;64609;47.052;15.462;2023-07-29T03:25:58;13.93;;;3.40;;
75930;SDS011;64609;47.052;15.462;2023-07-29T03:28:27;5.03;;;3.30;;
75930;SDS011;64609;47.052;15.462;2023-07-29T03:30:57;8.05;;;3.67;;
75930;SDS011;64609;47.052;15.462;2023-07-29T03:33:24;6.43;;;3.70;;
75930;SDS011;64609;47.052;15.462;2023-07-29T03:35:50;6.07;;;3.58;;
75930;SDS011;64609;47.052;15.462;2023-07-29T03:38:16;9.70;;;3.50;;
75930;SDS011;64609;47.052;15.462;2023-07-29T03:40:42;5.65;;;3.63;;
75930;SDS011;64609;47.052;15.462;2023-07-29T03:43:08;6.68;;;3.25;;
75930;SDS011;64609;47.052;15.462;2023-07-29T03:45:34;8.20;;;3.35;;
75930;SDS011;64609;47.052;15.462;2023-07-29T03:48:00;8.43;;;3.65;;
75930;SDS011;64609;47.052;15.462;2023-07-29T03:50:26;7.22;;;3.45;;
75930;SDS011;64609;47.052;15.462;2023-07-29T03:52:52;7.10;;;3.15;;
75930;SDS011;64609;47.052;15.462;2023-07-29T03:55:18;8.93;;;3.20;;
75930;SDS011;64609;47.052;15.462;2023-07-29T03:57:43;5.97;;;3.38;;
75930;SDS011;64609;47.052;15.462;2023-07-29T04:00:09;6.93;;;3.55;;
75930;SDS011;64609;47.052;15.462;2023-07-29T04:02:35;8.40;;;3.28;;
75930;SDS011;64609;47.052;15.462;2023-07-29T04:05:04;9.10;;;3.67;;
75930;SDS011;64609;47.052;15.462;2023-07-29T04:07:33;6.13;;;3.45;;
75930;SDS011;64609;47.052;15.462;2023-07-29T04:09:59;6.22;;;3.65;;
75930;SDS011;64609;47.052;15.462;2023-07-29T04:12:26;9.32;;;3.75;;
75930;SDS011;64609;47.052;15.462;2023-07-29T04:14:51;8.10;;;3.28;;
75930;SDS011;64609;47.052;15.462;2023-07-29T04:17:17;5.97;;;3.97;;
75930;SDS011;64609;47.052;15.462;2023-07-29T04:19:43;6.65;;;3.25;;
75930;SDS011;64609;47.052;15.462;2023-07-29T04:22:09;7.15;;;3.35;;
75930;SDS011;64609;47.052;15.462;2023-07-29T04:24:34;6.93;;;3.33;;
75930;SDS011;64609;47.052;15.462;2023-07-29T04:27:00;4.68;;;3.55;;
75930;SDS011;64609;47.052;15.462;2023-07-29T04:29:25;5.93;;;3.45;;
75930;SDS011;64609;47.052;15.462;2023-07-29T04:31:51;7.10;;;3.95;;
75930;SDS011;64609;47.052;15.462;2023-07-29T04:34:17;5.00;;;3.20;;
75930;SDS011;64609;47.052;15.462;2023-07-29T04:36:44;7.03;;;3.40;;
75930;SDS011;64609;47.052;15.462;2023-07-29T04:39:10;8.68;;;4.15;;
75930;SDS011;64609;47.052;15.462;2023-07-29T04:41:36;5.78;;;3.92;;
75930;SDS011;64609;47.052;15.462;2023-07-29T04:44:01;6.50;;;3.55;;
75930;SDS011;64609;47.052;15.462;2023-07-29T04:46:27;11.57;;;3.78;;
75930;SDS011;64609;47.052;15.462;2023-07-29T04:48:53;6.88;;;3.30;;
75930;SDS011;64609;47.052;15.462;2023-07-29T04:51:18;6.32;;;3.35;;
75930;SDS011;64609;47.052;15.462;2023-07-29T04:53:44;6.45;;;3.80;;
75930;SDS011;64609;47.052;15.462;2023-07-29T04:56:10;7.60;;;3.50;;
75930;SDS011;64609;47.052;15.462;2023-07-29T04:58:36;5.22;;;3.90;;
75930;SDS011;64609;47.052;15.462;2023-07-29T05:01:02;9.80;;;4.15;;
75930;SDS011;64609;47.052;15.462;2023-07-29T05:03:28;8.60;;;3.40;;
75930;SDS011;64609;47.052;15.462;2023-07-29T05:05:54;7.43;;;3.45;;
75930;SDS011;64609;47.052;15.462;2023-07-29T05:08:21;5.32;;;3.60;;
75930;SDS011;64609;47.052;15.462;2023-07-29T05:10:50;5.40;;;3.65;;
75930;SDS011;64609;47.052;15.462;2023-07-29T05:13:16;6.93;;;3.72;;
75930;SDS011;64609;47.052;15.462;2023-07-29T05:15:42;6.70;;;4.20;;
75930;SDS011;64609;47.052;15.462;2023-07-29T05:18:08;6.00;;;3.95;;
75930;SDS011;64609;47.052;15.462;2023-07-29T05:20:34;6.55;;;4.45;;
75930;SDS011;64609;47.052;15.462;2023-07-29T05:22:59;5.53;;;4.20;;
75930;SDS011;64609;47.052;15.462;2023-07-29T05:25:26;7.85;;;3.85;;
75930;SDS011;64609;47.052;15.462;2023-07-29T05:27:52;7.97;;;3.97;;
75930;SDS011;64609;47.052;15.462;2023-07-29T05:30:17;6.28;;;4.30;;
75930;SDS011;64609;47.052;15.462;2023-07-29T05:32:43;8.07;;;3.53;;
75930;SDS011;64609;47.052;15.462;2023-07-29T05:35:09;10.18;;;4.55;;
75930;SDS011;64609;47.052;15.462;2023-07-29T05:37:37;9.88;;;4.03;;
75930;SDS011;64609;47.052;15.462;2023-07-29T05:40:03;6.50;;;3.70;;
75930;SDS011;64609;47.052;15.462;2023-07-29T05:42:30;5.13;;;3.45;;
75930;SDS011;64609;47.052;15.462;2023-07-29T05:44:55;5.93;;;3.90;;
75930;SDS011;64609;47.052;15.462;2023-07-29T05:47:21;6.32;;;3.90;;
75930;SDS011;64609;47.052;15.462;2023-07-29T05:49:46;5.00;;;3.70;;
75930;SDS011;64609;47.052;15.462;2023-07-29T05:52:12;6.22;;;4.10;;
75930;SDS011;64609;47.052;15.462;2023-07-29T05:54:38;7.88;;;3.80;;
75930;SDS011;64609;47.052;15.462;2023-07-29T05:57:03;8.20;;;4.10;;
75930;SDS011;64609;47.052;15.462;2023-07-29T05:59:29;4.95;;;3.58;;
75930;SDS011;64609;47.052;15.462;2023-07-29T06:01:55;4.68;;;3.58;;
75930;SDS011;64609;47.052;15.462;2023-07-29T06:04:21;7.15;;;4.00;;
75930;SDS011;64609;47.052;15.462;2023-07-29T06:06:47;6.25;;;3.53;;
75930;SDS011;64609;47.052;15.462;2023-07-29T06:09:12;6.18;;;3.88;;
75930;SDS011;64609;47.052;15.462;2023-07-29T06:11:38;8.25;;;3.80;;
75930;SDS011;64609;47.052;15.462;2023-07-29T06:14:03;7.68;;;3.90;;
75930;SDS011;64609;47.052;15.462;2023-07-29T06:16:29;9.18;;;3.53;;
75930;SDS011;64609;47.052;15.462;2023-07-29T06:18:55;6.78;;;3.92;;
75930;SDS011;64609;47.052;15.462;2023-07-29T06:21:20;8.07;;;3.65;;
75930;SDS011;64609;47.052;15.462;2023-07-29T06:23:46;11.75;;;3.80;;
75930;SDS011;64609;47.052;15.462;2023-07-29T06:26:12;8.35;;;3.40;;
75930;SDS011;64609;47.052;15.462;2023-07-29T06:28:37;5.85;;;3.63;;
75930;SDS011;64609;47.052;15.462;2023-07-29T06:31:03;7.60;;;3.80;;
75930;SDS011;64609;47.052;15.462;2023-07-29T06:33:29;6.72;;;4.22;;
75930;SDS011;64609;47.052;15.462;2023-07-29T06:35:54;6.03;;;3.67;;
75930;SDS011;64609;47.052;15.462;2023-07-29T06:38:20;7.75;;;3.65;;
75930;SDS011;64609;47.052;15.462;2023-07-29T06:40:47;7.68;;;3.55;;
75930;SDS011;64609;47.052;15.462;2023-07-29T06:43:13;7.05;;;3.72;;
75930;SDS011;64609;47.052;15.462;2023-07-29T06:45:39;5.07;;;3.40;;
75930;SDS011;64609;47.052;15.462;2023-07-29T06:48:05;5.28;;;3.35;;
75930;SDS011;64609;47.052;15.462;2023-07-29T06:50:30;4.75;;;3.78;;
75930;SDS011;64609;47.052;15.462;2023-07-29T06:52:56;6.60;;;3.38;;
75930;SDS011;64609;47.052;15.462;2023-07-29T06:55:21;7.05;;;3.50;;
75930;SDS011;64609;47.052;15.462;2023-07-29T06:57:47;9.13;;;3.70;;
75930;SDS011;64609;47.052;15.462;2023-07-29T07:00:13;8.70;;;3.42;;
75930;SDS011;64609;47.052;15.462;2023-07-29T07:02:39;13.38;;;3.97;;
75930;SDS011;64609;47.052;15.462;2023-07-29T07:05:04;7.70;;;3.80;;
75930;SDS011;64609;47.052;15.462;2023-07-29T07:07:30;31.13;;;3.85;;
75930;SDS011;64609;47.052;15.462;2023-07-29T07:09:56;13.57;;;3.72;;
75930;SDS011;64609;47.052;15.462;2023-07-29T07:12:21;8.20;;;3.55;;
75930;SDS011;64609;47.052;15.462;2023-07-29T07:14:47;9.95;;;3.70;;
75930;SDS011;64609;47.052;15.462;2023-07-29T07:17:13;7.70;;;3.45;;
75930;SDS011;64609;47.052;15.462;2023-07-29T07:19:39;8.38;;;3.40;;
75930;SDS011;64609;47.052;15.462;2023-07-29T07:22:04;6.65;;;3.70;;
75930;SDS011;64609;47.052;15.462;2023-07-29T07:24:30;7.65;;;3.50;;
75930;SDS011;64609;47.052;15.462;2023-07-29T07:26:56;4.90;;;3.15;;
75930;SDS011;64609;47.052;15.462;2023-07-29T07:29:21;6.90;;;3.38;;
75930;SDS011;64609;47.052;15.462;2023-07-29T07:31:51;4.10;;;3.20;;
75930;SDS011;64609;47.052;15.462;2023-07-29T07:34:19;6.72;;;3.60;;
75930;SDS011;64609;47.052;15.462;2023-07-29T07:36:45;7.82;;;3.38;;
75930;SDS011;64609;47.052;15.462;2023-07-29T07:39:10;10.90;;;3.80;;
75930;SDS011;64609;47.052;15.462;2023-07-29T07:41:36;5.25;;;3.13;;
75930;SDS011;64609;47.052;15.462;2023-07-29T07:44:01;12.48;;;4.13;;
75930;SDS011;64609;47.052;15.462;2023-07-29T07:46:28;5.40;;;3.50;;
75930;SDS011;64609;47.052;15.462;2023-07-29T07:48:53;5.68;;;3.30;;
75930;SDS011;64609;47.052;15.462;2023-07-29T07:51:19;7.88;;;3.15;;
75930;SDS011;64609;47.052;15.462;2023-07-29T07:53:45;6.13;;;3.88;;
75930;SDS011;64609;47.052;15.462;2023-07-29T07:56:11;7.75;;;3.15;;
75930;SDS011;64609;47.052;15.462;2023-07-29T07:58:37;10.10;;;3.83;;
75930;SDS011;64609;47.052;15.462;2023-07-29T08:01:03;7.22;;;3.70;;
75930;SDS011;64609;47.052;15.462;2023-07-29T08:03:30;7.65;;;3.50;;
75930;SDS011;64609;47.052;15.462;2023-07-29T08:05:56;6.35;;;3.47;;
75930;SDS011;64609;47.052;15.462;2023-07-29T08:08:21;4.53;;;3.50;;
75930;SDS011;64609;47.052;15.462;2023-07-29T08:10:47;5.38;;;3.15;;
75930;SDS011;64609;47.052;15.462;2023-07-29T08:13:13;5.82;;;3.67;;
75930;SDS011;64609;47.052;15.462;2023-07-29T08:15:38;6.97;;;3.13;;
75930;SDS011;64609;47.052;15.462;2023-07-29T08:18:04;3.65;;;3.08;;
75930;SDS011;64609;47.052;15.462;2023-07-29T08:20:29;7.35;;;2.90;;
75930;SDS011;64609;47.052;15.462;2023-07-29T08:22:55;6.65;;;3.47;;
75930;SDS011;64609;47.052;15.462;2023-07-29T08:25:21;6.93;;;3.72;;
75930;SDS011;64609;47.052;15.462;2023-07-29T08:27:47;8.77;;;3.30;;
75930;SDS011;64609;47.052;15.462;2023-07-29T08:30:12;6.45;;;3.15;;
75930;SDS011;64609;47.052;15.462;2023-07-29T08:32:38;4.35;;;2.72;;
75930;SDS011;64609;47.052;15.462;2023-07-29T08:35:03;5.07;;;3.90;;
75930;SDS011;64609;47.052;15.462;2023-07-29T08:37:29;3.95;;;3.42;;
75930;SDS011;64609;47.052;15.462;2023-07-29T08:39:56;4.25;;;3.03;;
75930;SDS011;64609;47.052;15.462;2023-07-29T08:42:22;6.50;;;2.65;;
75930;SDS011;64609;47.052;15.462;2023-07-29T08:44:51;6.07;;;3.45;;
75930;SDS011;64609;47.052;15.462;2023-07-29T08:47:19;4.65;;;2.53;;
75930;SDS011;64609;47.052;15.462;2023-07-29T08:49:45;6.43;;;2.80;;
75930;SDS011;64609;47.052;15.462;2023-07-29T08:52:11;5.38;;;2.85;;
75930;SDS011;64609;47.052;15.462;2023-07-29T08:54:38;4.50;;;3.60;;
75930;SDS011;64609;47.052;15.462;2023-07-29T08:57:04;6.72;;;2.60;;
75930;SDS011;64609;47.052;15.462;2023-07-29T08:59:31;6.20;;;2.92;;
75930;SDS011;64609;47.052;15.462;2023-07-29T09:01:58;6.13;;;2.97;;
75930;SDS011;64609;47.052;15.462;2023-07-29T09:04:24;6.97;;;3.05;;
75930;SDS011;64609;47.052;15.462;2023-07-29T09:06:50;6.22;;;3.05;;
75930;SDS011;64609;47.052;15.462;2023-07-29T09:09:16;3.92;;;2.60;;
75930;SDS011;64609;47.052;15.462;2023-07-29T09:11:43;5.18;;;2.75;;
75930;SDS011;64609;47.052;15.462;2023-07-29T09:14:09;5.40;;;3.00;;
75930;SDS011;64609;47.052;15.462;2023-07-29T09:16:35;6.20;;;2.67;;
75930;SDS011;64609;47.052;15.462;2023-07-29T09:19:01;4.43;;;2.85;;
75930;SDS011;64609;47.052;15.462;2023-07-29T09:21:28;3.65;;;2.53;;
75930;SDS011;64609;47.052;15.462;2023-07-29T09:23:54;6.60;;;2.80;;
75930;SDS011;64609;47.052;15.462;2023-07-29T09:26:27;5.35;;;2.53;;
75930;SDS011;64609;47.052;15.462;2023-07-29T09:28:56;3.67;;;2.50;;
75930;SDS011;64609;47.052;15.462;2023-07-29T09:31:24;6.07;;;2.70;;
75930;SDS011;64609;47.052;15.462;2023-07-29T09:33:55;7.43;;;2.45;;
75930;SDS011;64609;47.052;15.462;2023-07-29T09:36:25;3.15;;;2.40;;
75930;SDS011;64609;47.052;15.462;2023-07-29T09:38:52;5.45;;;2.58;;
75930;SDS011;64609;47.052;15.462;2023-07-29T09:41:22;6.13;;;2.70;;
75930;SDS011;64609;47.052;15.462;2023-07-29T09:43:51;3.00;;;2.40;;
75930;SDS011;64609;47.052;15.462;2023-07-29T09:46:24;3.90;;;2.53;;
75930;SDS011;64609;47.052;15.462;2023-07-29T09:48:52;3.25;;;2.58;;
75930;SDS011;64609;47.052;15.462;2023-07-29T09:51:22;3.28;;;2.67;;
75930;SDS011;64609;47.052;15.462;2023-07-29T09:53:50;4.45;;;3.03;;
75930;SDS011;64609;47.052;15.462;2023-07-29T09:56:17;4.43;;;2.78;;
75930;SDS011;64609;47.052;15.462;2023-07-29T09:58:46;3.72;;;2.60;;
75930;SDS011;64609;47.052;15.462;2023-07-29T10:01:13;3.70;;;2.50;;
75930;SDS011;64609;47.052;15.462;2023-07-29T10:03:39;4.72;;;2.38;;
75930;SDS011;64609;47.052;15.462;2023-07-29T10:06:06;5.88;;;2.50;;
75930;SDS011;64609;47.052;15.462;2023-07-29T10:08:32;3.08;;;2.70;;
75930;SDS011;64609;47.052;15.462;2023-07-29T10:11:04;3.85;;;2.80;;
75930;SDS011;64609;47.052;15.462;2023-07-29T10:13:31;5.00;;;2.47;;
75930;SDS011;64609;47.052;15.462;2023-07-29T10:15:58;4.05;;;2.50;;
75930;SDS011;64609;47.052;15.462;2023-07-29T10:18:27;4.00;;;2.75;;
75930;SDS011;64609;47.052;15.462;2023-07-29T10:20:53;5.93;;;2.80;;
75930;SDS011;64609;47.052;15.462;2023-07-29T10:23:21;3.63;;;2.67;;
75930;SDS011;64609;47.052;15.462;2023-07-29T10:25:50;3.33;;;2.72;;
75930;SDS011;64609;47.052;15.462;2023-07-29T10:28:25;4.40;;;2.80;;
75930;SDS011;64609;47.052;15.462;2023-07-29T10:30:54;4.47;;;2.35;;
75930;SDS011;64609;47.052;15.462;2023-07-29T10:33:21;7.65;;;2.65;;
75930;SDS011;64609;47.052;15.462;2023-07-29T10:35:46;4.90;;;3.00;;
75930;SDS011;64609;47.052;15.462;2023-07-29T10:38:12;4.65;;;2.70;;
75930;SDS011;64609;47.052;15.462;2023-07-29T10:40:57;4.03;;;2.85;;
75930;SDS011;64609;47.052;15.462;2023-07-29T10:46:22;4.05;;;2.70;;
75930;SDS011;64609;47.052;15.462;2023-07-29T10:54:10;3.13;;;2.30;;
75930;SDS011;64609;47.052;15.462;2023-07-29T10:56:41;4.15;;;2.20;;
75930;SDS011;64609;47.052;15.462;2023-07-29T11:01:37;3.40;;;2.13;;
75930;SDS011;64609;47.052;15.462;2023-07-29T11:15:02;3.30;;;2.20;;
75930;SDS011;64609;47.052;15.462;2023-07-29T11:17:30;3.42;;;2.00;;
75930;SDS011;64609;47.052;15.462;2023-07-29T11:22:29;2.22;;;2.03;;
75930;SDS011;64609;47.052;15.462;2023-07-29T11:24:55;5.07;;;2.25;;
75930;SDS011;64609;47.052;15.462;2023-07-29T11:27:20;2.72;;;2.05;;
75930;SDS011;64609;47.052;15.462;2023-07-29T11:29:46;4.85;;;2.50;;
75930;SDS011;64609;47.052;15.462;2023-07-29T11:32:13;6.90;;;2.20;;
75930;SDS011;64609;47.052;15.462;2023-07-29T11:34:40;5.60;;;2.40;;
75930;SDS011;64609;47.052;15.462;2023-07-29T11:37:06;4.30;;;2.63;;
75930;SDS011;64609;47.052;15.462;2023-07-29T11:39:50;3.60;;;2.13;;
75930;SDS011;64609;47.052;15.462;2023-07-29T11:42:16;4.03;;;2.40;;
75930;SDS011;64609;47.052;15.462;2023-07-29T11:44:42;2.50;;;2.10;;
75930;SDS011;64609;47.052;15.462;2023-07-29T11:47:08;2.45;;;2.03;;
75930;SDS011;64609;47.052;15.462;2023-07-29T11:49:34;3.22;;;2.17;;
75930;SDS011;64609;47.052;15.462;2023-07-29T11:52:04;5.78;;;2.72;;
75930;SDS011;64609;47.052;15.462;2023-07-29T11:54:32;2.55;;;2.20;;
75930;SDS011;64609;47.052;15.462;2023-07-29T11:56:58;2.65;;;2.30;;
75930;SDS011;64609;47.052;15.462;2023-07-29T11:59:24;3.80;;;2.55;;
75930;SDS011;64609;47.052;15.462;2023-07-29T12:01:49;5.47;;;2.10;;
75930;SDS011;64609;47.052;15.462;2023-07-29T12:04:15;4.57;;;2.15;;
75930;SDS011;64609;47.052;15.462;2023-07-29T12:06:41;3.65;;;2.50;;
75930;SDS011;64609;47.052;15.462;2023-07-29T12:09:07;3.25;;;2.33;;
75930;SDS011;64609;47.052;15.462;2023-07-29T12:11:34;3.10;;;2.22;;
75930;SDS011;64609;47.052;15.462;2023-07-29T12:14:00;4.85;;;2.20;;
75930;SDS011;64609;47.052;15.462;2023-07-29T12:16:26;5.70;;;2.50;;
75930;SDS011;64609;47.052;15.462;2023-07-29T12:18:52;4.22;;;2.47;;
75930;SDS011;64609;47.052;15.462;2023-07-29T12:21:20;3.03;;;2.15;;
75930;SDS011;64609;47.052;15.462;2023-07-29T12:23:46;3.70;;;2.17;;
75930;SDS011;64609;47.052;15.462;2023-07-29T12:26:12;4.13;;;2.50;;
75930;SDS011;64609;47.052;15.462;2023-07-29T12:28:37;2.70;;;2.25;;
75930;SDS011;64609;47.052;15.462;2023-07-29T12:31:06;3.45;;;2.50;;
75930;SDS011;64609;47.052;15.462;2023-07-29T12:33:33;3.10;;;2.13;;
75930;SDS011;64609;47.052;15.462;2023-07-29T12:36:01;4.82;;;2.40;;
75930;SDS011;64609;47.052;15.462;2023-07-29T12:38:27;4.50;;;2.50;;
75930;SDS011;64609;47.052;15.462;2023-07-29T12:40:56;2.92;;;2.30;;
75930;SDS011;64609;47.052;15.462;2023-07-29T12:43:22;4.03;;;2.40;;
75930;SDS011;64609;47.052;15.462;2023-07-29T12:45:50;3.20;;;2.35;;
75930;SDS011;64609;47.052;15.462;2023-07-29T12:48:16;4.50;;;2.33;;
75930;SDS011;64609;47.052;15.462;2023-07-29T12:50:42;5.40;;;2.30;;
75930;SDS011;64609;47.052;15.462;2023-07-29T12:53:08;2.50;;;2.28;;
75930;SDS011;64609;47.052;15.462;2023-07-29T12:55:37;4.72;;;2.13;;
75930;SDS011;64609;47.052;15.462;2023-07-29T12:58:03;2.78;;;2.20;;
75930;SDS011;64609;47.052;15.462;2023-07-29T13:00:29;2.92;;;2.30;;
75930;SDS011;64609;47.052;15.462;2023-07-29T13:02:55;2.90;;;2.60;;
75930;SDS011;64609;47.052;15.462;2023-07-29T13:05:20;2.90;;;2.22;;
75930;SDS011;64609;47.052;15.462;2023-07-29T13:07:46;4.95;;;2.25;;
75930;SDS011;64609;47.052;15.462;2023-07-29T13:10:12;4.55;;;2.40;;
75930;SDS011;64609;47.052;15.462;2023-07-29T13:12:39;3.33;;;2.22;;
75930;SDS011;64609;47.052;15.462;2023-07-29T13:15:05;5.25;;;2.15;;
75930;SDS011;64609;47.052;15.462;2023-07-29T13:17:32;7.93;;;2.42;;
75930;SDS011;64609;47.052;15.462;2023-07-29T13:19:58;11.65;;;3.03;;
75930;SDS011;64609;47.052;15.462;2023-07-29T13:22:24;12.70;;;3.60;;
75930;SDS011;64609;47.052;15.462;2023-07-29T13:24:50;7.05;;;3.15;;
75930;SDS011;64609;47.052;15.462;2023-07-29T13:27:16;13.32;;;3.83;;
75930;SDS011;64609;47.052;15.462;2023-07-29T13:29:41;9.13;;;3.70;;
75930;SDS011;64609;47.052;15.462;2023-07-29T13:32:08;5.90;;;3.40;;
75930;SDS011;64609;47.052;15.462;2023-07-29T13:34:34;6.60;;;2.92;;
75930;SDS011;64609;47.052;15.462;2023-07-29T13:37:00;5.60;;;3.22;;
75930;SDS011;64609;47.052;15.462;2023-07-29T13:39:25;5.40;;;3.20;;
75930;SDS011;64609;47.052;15.462;2023-07-29T13:41:52;5.05;;;3.13;;
75930;SDS011;64609;47.052;15.462;2023-07-29T13:44:18;8.35;;;3.00;;
75930;SDS011;64609;47.052;15.462;2023-07-29T13:46:43;10.68;;;4.93;;
75930;SDS011;64609;47.052;15.462;2023-07-29T13:49:09;4.15;;;2.58;;
75930;SDS011;64609;47.052;15.462;2023-07-29T13:51:35;3.13;;;2.53;;
75930;SDS011;64609;47.052;15.462;2023-07-29T13:54:00;3.35;;;2.22;;
75930;SDS011;64609;47.052;15.462;2023-07-29T13:56:26;3.38;;;2.30;;
75930;SDS011;64609;47.052;15.462;2023-07-29T13:58:52;3.88;;;2.35;;
75930;SDS011;64609;47.052;15.462;2023-07-29T14:01:17;3.42;;;2.53;;
75930;SDS011;64609;47.052;15.462;2023-07-29T14:03:43;2.88;;;2.30;;
75930;SDS011;64609;47.052;15.462;2023-07-29T14:06:09;3.35;;;2.33;;
75930;SDS011;64609;47.052;15.462;2023-07-29T14:08:34;4.25;;;2.10;;
75930;SDS011;64609;47.052;15.462;2023-07-29T14:11:00;3.55;;;2.50;;
75930;SDS011;64609;47.052;15.462;2023-07-29T14:13:26;8.38;;;2.70;;
75930;SDS011;64609;47.052;15.462;2023-07-29T14:15:51;3.70;;;2.08;;
75930;SDS011;64609;47.052;15.462;2023-07-29T14:18:17;4.85;;;2.70;;
75930;SDS011;64609;47.052;15.462;2023-07-29T14:20:43;3.90;;;2.33;;
75930;SDS011;64609;47.052;15.462;2023-07-29T14:23:08;5.55;;;2.10;;
75930;SDS011;64609;47.052;15.462;2023-07-29T14:25:34;7.22;;;2.50;;
75930;SDS011;64609;47.052;15.462;2023-07-29T14:27:59;3.63;;;2.35;;
75930;SDS011;64609;47.052;15.462;2023-07-29T14:30:25;3.13;;;2.42;;
75930;SDS011;64609;47.052;15.462;2023-07-29T14:32:51;3.25;;;2.60;;
75930;SDS011;64609;47.052;15.462;2023-07-29T14:35:16;3.95;;;2.60;;
75930;SDS011;64609;47.052;15.462;2023-07-29T14:37:42;5.05;;;2.80;;
75930;SDS011;64609;47.052;15.462;2023-07-29T14:40:08;4.40;;;2.47;;
75930;SDS011;64609;47.052;15.462;2023-07-29T14:42:33;6.50;;;2.58;;
75930;SDS011;64609;47.052;15.462;2023-07-29T14:44:59;4.60;;;2.25;;
75930;SDS011;64609;47.052;15.462;2023-07-29T14:47:24;3.20;;;2.50;;
75930;SDS011;64609;47.052;15.462;2023-07-29T14:49:50;2.83;;;2.30;;
75930;SDS011;64609;47.052;15.462;2023-07-29T14:52:16;5.90;;;2.25;;
75930;SDS011;64609;47.052;15.462;2023-07-29T14:54:41;3.50;;;2.65;;
75930;SDS011;64609;47.052;15.462;2023-07-29T14:57:07;4.20;;;2.80;;
75930;SDS011;64609;47.052;15.462;2023-07-29T14:59:34;5.45;;;2.65;;
75930;SDS011;64609;47.052;15.462;2023-07-29T15:02:00;2.85;;;2.10;;
75930;SDS011;64609;47.052;15.462;2023-07-29T15:04:26;4.72;;;2.40;;